createdAt,value
2022-08-24T00:02:02.485Z,61.97
2022-08-24T00:04:32.191Z,62.58
2022-08-24T00:07:01.229Z,62.25
2022-08-24T00:09:30.028Z,64.23
2022-08-24T00:11:58.392Z,64.07
2022-08-24T00:14:26.474Z,64.91
2022-08-24T00:16:55.454Z,65.05
2022-08-24T00:19:24.011Z,65.63
2022-08-24T00:21:52.638Z,65.90
2022-08-24T00:24:21.218Z,66.11
2022-08-24T00:26:48.983Z,65.74
2022-08-24T00:29:18.218Z,66.00
2022-08-24T00:31:46.038Z,66.86
2022-08-24T00:34:14.311Z,66.84
2022-08-24T00:36:42.320Z,67.75
2022-08-24T00:39:12.280Z,67.00
2022-08-24T00:41:43.943Z,67.35
2022-08-24T00:44:11.972Z,68.28
2022-08-24T00:46:54.084Z,67.34
2022-08-24T00:49:33.740Z,67.58
2022-08-24T00:52:25.886Z,67.00
2022-08-24T00:54:58.730Z,68.13
2022-08-24T00:57:32.167Z,66.37
2022-08-24T01:00:12.549Z,66.85
2022-08-24T01:02:44.489Z,66.11
2022-08-24T01:05:13.229Z,65.34
2022-08-24T01:07:41.565Z,64.35
2022-08-24T01:10:13.843Z,63.70
2022-08-24T01:12:59.954Z,63.78
2022-08-24T01:15:37.633Z,63.68
2022-08-24T01:18:27.172Z,63.64
2022-08-24T01:21:15.051Z,65.10
2022-08-24T01:23:48.088Z,64.27
2022-08-24T01:26:19.966Z,65.36
2022-08-24T01:28:51.621Z,66.09
2022-08-24T01:31:24.898Z,65.27
2022-08-24T01:33:54.497Z,66.43
2022-08-24T01:36:33.474Z,65.92
2022-08-24T01:39:06.100Z,66.42
2022-08-24T01:41:33.869Z,67.09
2022-08-24T01:44:02.546Z,67.23
2022-08-24T01:46:30.289Z,68.72
2022-08-24T01:48:58.780Z,68.66
2022-08-24T01:51:31.480Z,69.86
2022-08-24T01:54:03.271Z,70.30
2022-08-24T01:56:33.293Z,69.87
2022-08-24T01:59:01.796Z,69.80
2022-08-24T02:01:32.760Z,69.23
2022-08-24T02:04:04.115Z,70.26
2022-08-24T02:06:33.124Z,70.54
2022-08-24T02:09:01.165Z,69.80
2022-08-24T02:11:29.158Z,70.58
2022-08-24T02:13:56.937Z,70.99
2022-08-24T02:16:25.362Z,72.11
2022-08-24T02:18:53.368Z,71.17
2022-08-24T02:21:21.074Z,70.68
2022-08-24T02:23:49.299Z,69.74
2022-08-24T02:26:17.603Z,69.02
2022-08-24T02:28:45.889Z,68.96
2022-08-24T02:31:14.672Z,69.12
2022-08-24T02:33:44.393Z,69.46
2022-08-24T02:36:25.331Z,68.18
2022-08-24T02:38:56.266Z,68.17
2022-08-24T02:41:25.792Z,68.95
2022-08-24T02:43:55.773Z,67.26
2022-08-24T02:46:27.280Z,67.61
2022-08-24T02:49:10.710Z,68.77
2022-08-24T02:51:45.797Z,67.38
2022-08-24T02:54:18.835Z,68.75
2022-08-24T02:56:49.142Z,70.17
2022-08-24T02:59:17.655Z,72.06
2022-08-24T03:01:46.243Z,73.37
2022-08-24T03:04:14.882Z,74.03
2022-08-24T03:09:13.987Z,74.55
2022-08-24T03:11:45.326Z,75.84
2022-08-24T03:14:14.787Z,76.92
2022-08-24T03:16:43.228Z,77.06
2022-08-24T03:19:11.228Z,78.04
2022-08-24T03:21:39.939Z,77.88
2022-08-24T03:24:08.145Z,77.55
2022-08-24T03:26:35.957Z,76.42
2022-08-24T03:29:03.795Z,72.56
2022-08-24T03:31:33.690Z,71.91
2022-08-24T03:34:01.349Z,71.56
2022-08-24T03:36:28.959Z,71.36
2022-08-24T03:38:56.785Z,72.24
2022-08-24T03:41:25.103Z,74.04
2022-08-24T03:43:55.832Z,74.86
2022-08-24T03:46:28.988Z,75.33
2022-08-24T03:48:58.896Z,75.64
2022-08-24T03:51:28.514Z,76.32
2022-08-24T03:53:57.274Z,76.09
2022-08-24T03:56:28.101Z,73.91
2022-08-24T03:58:56.515Z,74.46
2022-08-24T04:01:26.940Z,74.37
2022-08-24T04:03:55.620Z,74.55
2022-08-24T04:06:28.350Z,74.50
2022-08-24T04:08:57.409Z,73.71
2022-08-24T04:11:28.329Z,74.05
2022-08-24T04:13:58.698Z,73.96
2022-08-24T04:16:29.096Z,74.62
2022-08-24T04:19:10.903Z,73.79
2022-08-24T04:21:38.939Z,73.46
2022-08-24T04:24:10.543Z,73.80
2022-08-24T04:26:44.689Z,74.42
2022-08-24T04:29:18.692Z,74.58
2022-08-24T04:31:51.370Z,73.18
2022-08-24T04:34:19.551Z,73.23
2022-08-24T04:36:47.965Z,72.10
2022-08-24T04:39:16.276Z,71.45
2022-08-24T04:41:57.373Z,71.23
2022-08-24T04:44:33.300Z,71.14
2022-08-24T04:47:01.853Z,71.05
2022-08-24T04:49:30.637Z,71.79
2022-08-24T04:51:58.505Z,71.27
2022-08-24T04:54:27.448Z,70.72
2022-08-24T04:57:10.979Z,70.44
2022-08-24T04:59:41.387Z,70.29
2022-08-24T05:02:09.238Z,70.29
2022-08-24T05:04:37.852Z,70.51
2022-08-24T05:07:06.540Z,69.90
2022-08-24T05:09:34.700Z,70.04
2022-08-24T05:12:03.376Z,70.71
2022-08-24T05:14:36.615Z,70.81
2022-08-24T05:17:04.776Z,70.01
2022-08-24T05:19:37.001Z,69.93
2022-08-24T05:22:05.492Z,69.79
2022-08-24T05:24:33.716Z,70.67
2022-08-24T05:27:01.519Z,69.34
2022-08-24T05:29:33.718Z,70.95
2022-08-24T05:32:02.245Z,69.28
2022-08-24T05:34:30.750Z,69.48
2022-08-24T05:36:58.364Z,70.89
2022-08-24T05:39:44.515Z,70.00
2022-08-24T05:42:13.701Z,69.55
2022-08-24T05:44:47.292Z,70.48
2022-08-24T05:47:18.233Z,69.76
2022-08-24T05:49:48.116Z,69.97
2022-08-24T05:52:16.660Z,69.40
2022-08-24T05:54:46.074Z,68.96
2022-08-24T05:57:16.581Z,67.82
2022-08-24T06:00:08.942Z,66.80
2022-08-24T06:02:43.854Z,66.89
2022-08-24T06:05:11.927Z,65.24
2022-08-24T06:07:39.766Z,65.66
2022-08-24T06:10:34.892Z,64.89
2022-08-24T06:12:56.114Z,65.04
2022-08-24T06:15:25.064Z,63.42
2022-08-24T06:17:53.226Z,61.24
2022-08-24T06:20:21.571Z,60.08
2022-08-24T06:22:49.465Z,57.94
2022-08-24T06:25:36.829Z,58.15
2022-08-24T06:28:04.580Z,57.07
2022-08-24T06:30:32.801Z,58.85
2022-08-24T06:33:16.384Z,56.81
2022-08-24T06:35:47.790Z,56.86
2022-08-24T06:38:17.383Z,54.24
2022-08-24T06:40:47.335Z,53.76
2022-08-24T06:43:15.313Z,52.51
2022-08-24T06:45:51.464Z,52.01
2022-08-24T06:48:23.772Z,51.46
2022-08-24T06:50:53.673Z,46.95
2022-08-24T06:53:21.960Z,48.18
2022-08-24T06:55:53.365Z,47.15
2022-08-24T06:58:22.691Z,45.75
2022-08-24T07:00:51.028Z,45.02
2022-08-24T07:03:21.153Z,44.58
2022-08-24T07:05:57.914Z,45.27
2022-08-24T07:08:37.071Z,43.63
2022-08-24T07:11:06.170Z,44.52
2022-08-24T07:13:34.382Z,43.51
2022-08-24T07:16:02.851Z,44.04
2022-08-24T07:18:34.116Z,44.33
2022-08-24T07:21:04.826Z,44.36
2022-08-24T07:23:42.227Z,45.17
2022-08-24T07:26:21.671Z,45.54
2022-08-24T07:28:59.857Z,43.56
2022-08-24T07:31:33.296Z,41.39
2022-08-24T07:34:12.300Z,42.18
2022-08-24T07:36:44.284Z,41.77
2022-08-24T07:39:13.124Z,41.23
2022-08-24T07:42:02.651Z,41.70
2022-08-24T07:44:32.406Z,41.44
2022-08-24T07:47:10.544Z,40.10
2022-08-24T07:49:48.244Z,40.47
2022-08-24T07:52:16.189Z,39.60
2022-08-24T07:54:45.806Z,40.28
2022-08-24T07:57:13.835Z,39.66
2022-08-24T07:59:42.103Z,39.50
2022-08-24T08:02:11.799Z,40.59
2022-08-24T08:04:41.543Z,41.20
2022-08-24T08:07:10.209Z,40.81
2022-08-24T08:09:39.115Z,40.57
2022-08-24T08:12:09.235Z,40.08
2022-08-24T08:14:40.381Z,39.87
2022-08-24T08:17:08.265Z,39.18
2022-08-24T08:19:36.896Z,39.11
2022-08-24T08:22:23.803Z,38.62
2022-08-24T08:25:14.812Z,38.18
2022-08-24T08:30:18.206Z,37.52
2022-08-24T08:32:46.407Z,36.89
2022-08-24T08:35:14.814Z,35.64
2022-08-24T08:37:43.332Z,34.85
2022-08-24T08:40:39.319Z,34.96
2022-08-24T08:43:16.265Z,34.86
2022-08-24T08:45:56.405Z,33.19
2022-08-24T08:49:01.039Z,33.73
2022-08-24T08:51:33.865Z,32.89
2022-08-24T08:54:18.395Z,32.21
2022-08-24T08:57:21.414Z,32.57
2022-08-24T09:00:01.209Z,31.75
2022-08-24T09:02:58.990Z,32.10
2022-08-24T09:05:40.685Z,31.40
2022-08-24T09:08:51.896Z,31.66
2022-08-24T09:11:29.629Z,32.56
2022-08-24T09:14:06.790Z,31.15
2022-08-24T09:17:01.240Z,31.07
2022-08-24T09:19:52.309Z,30.87
2022-08-24T09:22:22.013Z,31.54
2022-08-24T09:24:52.825Z,31.21
2022-08-24T09:28:14.789Z,29.91
2022-08-24T09:30:54.820Z,31.18
2022-08-24T09:33:27.405Z,29.73
2022-08-24T09:36:13.193Z,29.80
2022-08-24T09:38:52.329Z,30.49
2022-08-24T09:41:39.701Z,29.90
2022-08-24T09:44:38.936Z,30.89
2022-08-24T09:47:06.540Z,29.60
2022-08-24T09:49:58.708Z,29.86
2022-08-24T09:52:29.218Z,30.66
2022-08-24T09:55:15.692Z,29.86
2022-08-24T09:58:13.265Z,31.30
2022-08-24T10:01:03.987Z,30.07
2022-08-24T10:03:57.361Z,29.26
2022-08-24T10:06:43.836Z,29.17
2022-08-24T10:09:34.852Z,28.17
2022-08-24T10:12:17.837Z,29.37
2022-08-24T10:15:01.220Z,28.21
2022-08-24T10:17:32.035Z,27.78
2022-08-24T10:20:09.085Z,26.58
2022-08-24T10:22:49.461Z,27.05
2022-08-24T10:25:54.433Z,27.30
2022-08-24T10:28:43.700Z,27.22
2022-08-24T10:31:19.235Z,27.83
2022-08-24T10:33:50.006Z,26.86
2022-08-24T10:36:30.953Z,26.16
2022-08-24T10:39:39.897Z,26.83
2022-08-24T10:43:01.954Z,27.11
2022-08-24T10:45:57.678Z,26.86
2022-08-24T10:48:33.047Z,28.50
2022-08-24T10:51:14.049Z,28.18
2022-08-24T10:53:48.498Z,27.09
2022-08-24T10:56:29.869Z,27.01
2022-08-24T10:59:18.866Z,26.25
2022-08-24T11:02:12.352Z,26.59
2022-08-24T11:04:41.761Z,27.00
2022-08-24T11:07:15.424Z,26.28
2022-08-24T11:10:01.252Z,25.15
2022-08-24T11:12:33.108Z,25.29
2022-08-24T11:15:24.162Z,24.92
2022-08-24T11:17:58.253Z,25.23
2022-08-24T11:20:33.336Z,25.12
2022-08-24T11:23:08.063Z,25.57
2022-08-24T11:25:46.039Z,25.94
2022-08-24T11:28:22.892Z,26.68
2022-08-24T11:30:50.755Z,25.53
2022-08-24T11:33:29.168Z,24.91
2022-08-24T11:35:57.778Z,25.18
2022-08-24T11:38:31.723Z,23.96
2022-08-24T11:41:29.301Z,23.28
2022-08-24T11:44:27.912Z,23.73
2022-08-24T11:47:07.242Z,23.83
2022-08-24T11:50:04.293Z,23.58
2022-08-24T11:52:38.224Z,22.94
2022-08-24T11:55:19.614Z,23.31
2022-08-24T11:58:07.130Z,23.51
2022-08-24T12:01:19.311Z,24.00
2022-08-24T12:04:01.195Z,23.61
2022-08-24T12:06:32.202Z,23.08
2022-08-24T12:09:19.063Z,23.96
2022-08-24T12:12:08.688Z,24.45
2022-08-24T12:15:03.487Z,24.27
2022-08-24T12:17:45.357Z,23.45
2022-08-24T12:20:32.113Z,24.44
2022-08-24T12:23:08.623Z,23.81
2022-08-24T12:25:55.814Z,24.47
2022-08-24T12:28:29.437Z,24.58
2022-08-24T12:31:04.033Z,25.03
2022-08-24T12:33:37.714Z,24.10
2022-08-24T12:36:18.563Z,23.90
2022-08-24T12:38:51.989Z,24.13
2022-08-24T12:41:32.833Z,23.98
2022-08-24T12:44:09.901Z,24.02
2022-08-24T12:46:38.552Z,24.67
2022-08-24T12:49:12.636Z,23.84
2022-08-24T12:52:35.618Z,24.60
2022-08-24T12:55:52.341Z,24.05
2022-08-24T12:58:54.711Z,24.84
2022-08-24T13:01:29.281Z,24.84
2022-08-24T13:04:09.104Z,25.75
2022-08-24T13:06:49.661Z,24.96
2022-08-24T13:09:43.743Z,25.81
2022-08-24T13:12:33.145Z,25.39
2022-08-24T13:15:30.040Z,25.83
2022-08-24T13:18:20.663Z,25.64
2022-08-24T13:20:48.314Z,24.49
2022-08-24T13:23:24.131Z,25.03
2022-08-24T13:25:54.708Z,24.41
2022-08-24T13:28:28.833Z,25.04
2022-08-24T13:31:05.954Z,25.47
2022-08-24T13:33:49.370Z,25.52
2022-08-24T13:36:32.604Z,25.52
2022-08-24T13:39:34.059Z,25.62
2022-08-24T13:42:21.707Z,25.51
2022-08-24T13:45:16.884Z,25.54
2022-08-24T13:47:56.981Z,25.22
2022-08-24T13:50:55.772Z,25.24
2022-08-24T13:53:53.293Z,24.50
2022-08-24T13:56:44.508Z,25.30
2022-08-24T13:59:12.499Z,25.26
2022-08-24T14:02:07.887Z,25.84
2022-08-24T14:04:45.904Z,25.44
2022-08-24T14:07:29.218Z,25.72
2022-08-24T14:10:09.017Z,25.35
2022-08-24T14:12:54.967Z,25.55
2022-08-24T14:15:25.272Z,25.61
2022-08-24T14:18:05.281Z,25.52
2022-08-24T14:21:00.577Z,25.09
2022-08-24T14:23:34.370Z,25.02
2022-08-24T14:26:33.269Z,25.27
2022-08-24T14:29:16.096Z,26.02
2022-08-24T14:32:01.494Z,25.14
2022-08-24T14:35:06.031Z,25.16
2022-08-24T14:38:00.335Z,24.98
2022-08-24T14:40:37.475Z,25.35
2022-08-24T14:43:11.145Z,25.33
2022-08-24T14:46:12.502Z,25.01
2022-08-24T14:48:58.877Z,25.06
2022-08-24T14:51:47.267Z,24.89
2022-08-24T14:54:46.129Z,25.42
2022-08-24T14:57:41.728Z,25.01
2022-08-24T15:00:15.794Z,24.60
2022-08-24T15:02:55.895Z,24.82
2022-08-24T15:05:29.616Z,24.55
2022-08-24T15:08:03.453Z,24.38
2022-08-24T15:10:57.527Z,25.05
2022-08-24T15:13:33.887Z,25.13
2022-08-24T15:16:08.396Z,25.47
2022-08-24T15:18:47.879Z,25.47
2022-08-24T15:21:30.683Z,25.10
2022-08-24T15:24:10.118Z,25.13
2022-08-24T15:27:10.685Z,24.91
2022-08-24T15:29:53.081Z,24.87
2022-08-24T15:32:22.501Z,24.55
2022-08-24T15:34:58.488Z,24.87
2022-08-24T15:37:44.135Z,25.07
2022-08-24T15:40:22.507Z,25.55
2022-08-24T15:42:51.351Z,25.91
2022-08-24T15:45:21.137Z,27.07
2022-08-24T15:47:53.147Z,27.30
2022-08-24T15:50:24.683Z,27.26
2022-08-24T15:53:06.139Z,27.42
2022-08-24T15:55:46.857Z,27.79
2022-08-24T15:58:30.903Z,28.20
2022-08-24T16:01:38.226Z,28.02
2022-08-24T16:04:43.421Z,28.05
2022-08-24T16:07:21.449Z,27.64
2022-08-24T16:10:03.431Z,28.31
2022-08-24T16:12:32.635Z,29.28
2022-08-24T16:15:17.705Z,29.31
2022-08-24T16:17:51.464Z,29.47
2022-08-24T16:20:25.216Z,29.20
2022-08-24T16:22:58.966Z,30.20
2022-08-24T16:25:32.747Z,29.78
2022-08-24T16:28:09.837Z,29.88
2022-08-24T16:30:43.342Z,30.37
2022-08-24T16:33:39.918Z,30.69
2022-08-24T16:36:20.099Z,30.60
2022-08-24T16:38:50.641Z,31.54
2022-08-24T16:41:22.665Z,31.40
2022-08-24T16:43:50.456Z,31.62
2022-08-24T16:46:23.251Z,31.39
2022-08-24T16:48:54.182Z,31.53
2022-08-24T16:51:24.702Z,32.64
2022-08-24T16:53:53.890Z,33.04
2022-08-24T16:56:22.508Z,33.83
2022-08-24T16:58:50.824Z,34.30
2022-08-24T17:01:18.687Z,34.56
2022-08-24T17:03:46.335Z,34.75
2022-08-24T17:06:15.376Z,35.29
2022-08-24T17:08:44.247Z,36.02
2022-08-24T17:11:12.771Z,36.03
2022-08-24T17:13:56.185Z,36.45
2022-08-24T17:16:24.494Z,36.75
2022-08-24T17:18:52.147Z,36.87
2022-08-24T17:21:20.396Z,36.85
2022-08-24T17:23:48.417Z,37.30
2022-08-24T17:26:20.093Z,38.03
2022-08-24T17:28:51.856Z,39.08
2022-08-24T17:31:19.723Z,39.69
2022-08-24T17:33:47.629Z,39.69
2022-08-24T17:36:16.884Z,39.03
2022-08-24T17:38:53.127Z,40.06
2022-08-24T17:41:25.072Z,40.73
2022-08-24T17:43:53.760Z,39.96
2022-08-24T17:46:22.066Z,41.41
2022-08-24T17:48:50.529Z,42.28
2022-08-24T17:51:18.239Z,42.44
2022-08-24T17:53:46.131Z,43.39
2022-08-24T17:56:15.185Z,43.44
2022-08-24T17:59:01.958Z,43.53
2022-08-24T18:01:30.617Z,43.66
2022-08-24T18:03:59.255Z,44.16
2022-08-24T18:06:28.005Z,44.39
2022-08-24T18:08:59.243Z,44.40
2022-08-24T18:11:27.295Z,44.99
2022-08-24T18:13:54.936Z,44.34
2022-08-24T18:16:25.046Z,44.86
2022-08-24T18:18:54.090Z,44.90
2022-08-24T18:21:23.048Z,45.34
2022-08-24T18:23:51.586Z,46.02
2022-08-24T18:26:27.655Z,46.43
2022-08-24T18:29:03.140Z,46.51
2022-08-24T18:31:32.796Z,46.83
2022-08-24T18:34:00.561Z,46.49
2022-08-24T18:36:28.615Z,46.60
2022-08-24T18:38:56.597Z,46.29
2022-08-24T18:41:32.112Z,46.46
2022-08-24T18:44:04.816Z,46.23
2022-08-24T18:46:32.983Z,46.53
2022-08-24T18:49:01.757Z,46.84
2022-08-24T18:51:35.973Z,46.60
2022-08-24T18:54:10.847Z,47.38
2022-08-24T18:56:39.029Z,47.03
2022-08-24T18:59:06.905Z,47.07
2022-08-24T19:01:55.321Z,46.34
2022-08-24T19:04:29.473Z,46.14
2022-08-24T19:07:01.345Z,45.79
2022-08-24T19:09:33.958Z,46.81
2022-08-24T19:12:06.735Z,46.32
2022-08-24T19:14:35.929Z,45.97
2022-08-24T19:17:04.999Z,46.23
2022-08-24T19:19:33.029Z,46.06
2022-08-24T19:22:03.122Z,46.36
2022-08-24T19:24:32.714Z,46.77
2022-08-24T19:27:01.163Z,47.75
2022-08-24T19:29:54.430Z,46.62
2022-08-24T19:32:26.113Z,46.41
2022-08-24T19:34:55.613Z,46.55
2022-08-24T19:37:23.848Z,46.48
2022-08-24T19:39:51.452Z,46.43
2022-08-24T19:42:21.131Z,46.15
2022-08-24T19:45:07.703Z,46.27
2022-08-24T19:47:35.581Z,46.43
2022-08-24T19:50:08.030Z,46.96
2022-08-24T19:52:36.851Z,46.64
2022-08-24T19:55:07.525Z,47.12
2022-08-24T19:57:49.438Z,46.93
2022-08-24T20:00:17.220Z,46.88
2022-08-24T20:02:50.776Z,47.26
2022-08-24T20:05:20.429Z,47.41
2022-08-24T20:07:48.608Z,47.54
2022-08-24T20:10:19.113Z,47.98
2022-08-24T20:12:46.984Z,47.62
2022-08-24T20:15:15.006Z,48.17
2022-08-24T20:17:43.265Z,47.98
2022-08-24T20:20:12.149Z,48.62
2022-08-24T20:22:39.927Z,48.75
2022-08-24T20:25:08.355Z,49.10
2022-08-24T20:27:36.612Z,50.30
2022-08-24T20:30:06.496Z,50.07
2022-08-24T20:32:36.163Z,50.33
2022-08-24T20:35:04.765Z,50.64
2022-08-24T20:37:33.641Z,50.53
2022-08-24T20:40:02.061Z,51.56
2022-08-24T20:42:31.859Z,50.18
2022-08-24T20:45:00.094Z,50.94
2022-08-24T20:47:28.345Z,51.43
2022-08-24T20:49:56.017Z,51.98
2022-08-24T20:52:23.741Z,52.15
2022-08-24T20:54:51.353Z,52.46
2022-08-24T20:57:20.173Z,52.17
2022-08-24T20:59:47.832Z,52.76
2022-08-24T21:02:15.709Z,52.71
2022-08-24T21:04:43.514Z,52.63
2022-08-24T21:07:12.817Z,52.48
2022-08-24T21:09:40.871Z,52.37
2022-08-24T21:12:09.013Z,52.66
2022-08-24T21:14:36.669Z,52.61
2022-08-24T21:17:06.215Z,52.65
2022-08-24T21:19:34.453Z,52.85
2022-08-24T21:22:02.237Z,52.94
2022-08-24T21:24:29.964Z,52.20
2022-08-24T21:26:58.756Z,51.49
2022-08-24T21:29:30.623Z,51.38
2022-08-24T21:32:16.852Z,51.71
2022-08-24T21:34:44.566Z,51.54
2022-08-24T21:37:15.759Z,52.05
2022-08-24T21:39:46.823Z,52.04
2022-08-24T21:42:17.017Z,53.10
2022-08-24T21:44:46.697Z,53.49
2022-08-24T21:47:14.421Z,52.80
2022-08-24T21:49:42.088Z,52.85
2022-08-24T21:52:09.908Z,52.49
2022-08-24T21:54:37.595Z,51.79
2022-08-24T21:57:06.017Z,51.54
2022-08-24T21:59:34.536Z,52.02
2022-08-24T22:02:02.438Z,53.73
2022-08-24T22:04:30.656Z,53.85
2022-08-24T22:07:00.087Z,53.61
2022-08-24T22:09:28.681Z,53.48
2022-08-24T22:11:56.425Z,52.84
2022-08-24T22:14:23.999Z,53.52
2022-08-24T22:16:51.892Z,53.32
2022-08-24T22:19:20.143Z,54.57
2022-08-24T22:21:48.206Z,54.79
2022-08-24T22:24:16.645Z,55.51
2022-08-24T22:26:45.276Z,54.98
2022-08-24T22:29:13.186Z,54.33
2022-08-24T22:31:43.548Z,55.05
2022-08-24T22:34:19.484Z,54.70
2022-08-24T22:36:49.780Z,55.85
2022-08-24T22:39:17.732Z,55.78
2022-08-24T22:41:45.612Z,56.72
2022-08-24T22:44:19.441Z,56.71
2022-08-24T22:46:50.689Z,56.90
2022-08-24T22:49:21.844Z,57.12
2022-08-24T22:51:49.748Z,57.23
2022-08-24T22:54:19.703Z,57.80
2022-08-24T22:56:51.787Z,58.28
2022-08-24T22:59:23.242Z,57.82
2022-08-24T23:01:53.619Z,58.24
2022-08-24T23:04:25.967Z,59.13
2022-08-24T23:06:55.051Z,57.90
2022-08-24T23:09:23.574Z,59.29
2022-08-24T23:11:54.734Z,59.73
2022-08-24T23:14:24.330Z,59.16
2022-08-24T23:16:53.335Z,59.90
2022-08-24T23:19:43.239Z,59.41
2022-08-24T23:22:13.872Z,57.90
2022-08-24T23:24:42.777Z,58.80
2022-08-24T23:27:11.736Z,58.81
2022-08-24T23:29:40.297Z,58.23
2022-08-24T23:32:08.181Z,57.79
2022-08-24T23:34:36.663Z,57.31
2022-08-24T23:37:05.126Z,57.04
2022-08-24T23:39:33.610Z,57.23
2022-08-24T23:42:01.553Z,56.39
2022-08-24T23:44:30.149Z,56.78
2022-08-24T23:46:58.645Z,56.74
2022-08-24T23:49:27.924Z,57.08
2022-08-24T23:51:55.948Z,56.62
2022-08-24T23:54:24.999Z,56.30
2022-08-24T23:56:53.308Z,57.15
2022-08-24T23:59:24.662Z,56.89
